Time;durP1;ratioP1;P1;durP2;ratioP2;P2;SDS_P1;SDS_P2;PMS_P1;PMS_P2;Temp;Humidity;BMP_temperature;BMP_pressure;BME280_temperature;BME280_humidity;BME280_pressure;Samples;Min_cycle;Max_cycle;Signal;HPM_P1;HPM_P2
2022/10/26 00:01:09;;;;;;;4.22;2.00;;;;;;;;;;4987483;28;20402;-62
2022/10/26 00:03:36;;;;;;;8.00;2.17;;;;;;;;;;4983542;28;20429;-61
2022/10/26 00:06:07;;;;;;;9.85;2.20;;;;;;;;;;4983125;28;20042;-58
2022/10/26 00:08:32;;;;;;;5.78;2.13;;;;;;;;;;4984178;28;20461;-59
2022/10/26 00:10:58;;;;;;;7.50;2.53;;;;;;;;;;4989032;28;20090;-57
2022/10/26 00:13:23;;;;;;;8.27;2.30;;;;;;;;;;4985622;28;20069;-59
2022/10/26 00:15:49;;;;;;;6.32;2.42;;;;;;;;;;4985403;28;20026;-59
2022/10/26 00:18:14;;;;;;;6.38;2.00;;;;;;;;;;4979984;28;20470;-60
2022/10/26 00:20:41;;;;;;;4.20;2.53;;;;;;;;;;4986719;28;20050;-59
2022/10/26 00:23:06;;;;;;;7.05;2.50;;;;;;;;;;4981088;28;20097;-57
2022/10/26 00:25:32;;;;;;;8.45;2.60;;;;;;;;;;4972468;28;20533;-59
2022/10/26 00:27:57;;;;;;;6.53;3.00;;;;;;;;;;4970944;28;20059;-58
2022/10/26 00:30:23;;;;;;;7.25;2.95;;;;;;;;;;4975943;28;20145;-57
2022/10/26 00:32:48;;;;;;;9.07;3.15;;;;;;;;;;4975832;28;20074;-58
2022/10/26 00:35:13;;;;;;;9.50;2.95;;;;;;;;;;4973356;28;20050;-59
2022/10/26 00:37:39;;;;;;;8.32;2.78;;;;;;;;;;4982146;28;20046;-59
2022/10/26 00:40:05;;;;;;;9.25;2.83;;;;;;;;;;4975899;28;20026;-59
2022/10/26 00:42:30;;;;;;;5.35;2.45;;;;;;;;;;4978471;28;20058;-59
2022/10/26 00:44:59;;;;;;;12.40;2.70;;;;;;;;;;4978930;28;20049;-59
2022/10/26 00:47:28;;;;;;;9.30;3.00;;;;;;;;;;4975302;28;20129;-59
2022/10/26 00:49:56;;;;;;;7.55;3.00;;;;;;;;;;4983567;28;20046;-58
2022/10/26 00:52:22;;;;;;;8.70;2.60;;;;;;;;;;4972497;28;20037;-58
2022/10/26 00:54:48;;;;;;;7.65;2.47;;;;;;;;;;4978147;28;20790;-56
2022/10/26 00:57:15;;;;;;;7.72;2.70;;;;;;;;;;4976258;28;20046;-58
2022/10/26 00:59:42;;;;;;;8.25;2.47;;;;;;;;;;4973977;28;20202;-57
2022/10/26 01:02:08;;;;;;;5.43;2.53;;;;;;;;;;4979621;28;20046;-59
2022/10/26 01:04:34;;;;;;;10.25;2.67;;;;;;;;;;4980107;28;20125;-58
2022/10/26 01:07:02;;;;;;;7.57;2.80;;;;;;;;;;4954219;28;20758;-59
2022/10/26 01:09:28;;;;;;;4.00;2.42;;;;;;;;;;4972894;28;20100;-59
2022/10/26 01:11:53;;;;;;;9.30;3.10;;;;;;;;;;4972326;28;20047;-60
2022/10/26 01:14:20;;;;;;;6.47;3.10;;;;;;;;;;4975648;28;20046;-58
2022/10/26 01:16:48;;;;;;;7.78;3.10;;;;;;;;;;4979007;28;20844;-59
2022/10/26 01:19:33;;;;;;;8.27;2.85;;;;;;;;;;4975498;28;20053;-57
2022/10/26 01:22:17;;;;;;;12.10;2.85;;;;;;;;;;4978302;28;20073;-59
2022/10/26 01:25:11;;;;;;;7.57;2.83;;;;;;;;;;4974875;28;20084;-57
2022/10/26 01:27:42;;;;;;;8.45;2.72;;;;;;;;;;4975564;28;20058;-58
2022/10/26 01:30:20;;;;;;;7.93;2.90;;;;;;;;;;4977852;28;20453;-58
2022/10/26 01:33:10;;;;;;;6.18;2.80;;;;;;;;;;4981403;28;20059;-58
2022/10/26 01:35:48;;;;;;;5.55;2.63;;;;;;;;;;4983798;28;20054;-59
2022/10/26 01:38:35;;;;;;;11.15;2.92;;;;;;;;;;4985872;28;20054;-59
2022/10/26 01:41:04;;;;;;;11.52;2.97;;;;;;;;;;4984131;28;20054;-62
2022/10/26 01:43:34;;;;;;;8.40;2.80;;;;;;;;;;4983275;28;20065;-62
2022/10/26 01:46:02;;;;;;;8.90;3.00;;;;;;;;;;4981377;28;20042;-55
2022/10/26 01:48:28;;;;;;;7.10;2.67;;;;;;;;;;4967265;28;20055;-59
2022/10/26 01:50:56;;;;;;;12.10;2.95;;;;;;;;;;4981858;28;20046;-57
2022/10/26 01:53:24;;;;;;;9.27;2.88;;;;;;;;;;4984033;28;20390;-57
2022/10/26 01:55:52;;;;;;;8.45;2.58;;;;;;;;;;4982191;28;20469;-56
2022/10/26 01:58:20;;;;;;;12.57;2.95;;;;;;;;;;4979119;28;20050;-58
2022/10/26 02:00:58;;;;;;;6.57;3.03;;;;;;;;;;4984826;28;20041;-58
2022/10/26 02:03:56;;;;;;;7.40;3.17;;;;;;;;;;4969339;28;20120;-58
2022/10/26 02:06:35;;;;;;;5.57;2.67;;;;;;;;;;4988038;28;20050;-60
2022/10/26 02:09:26;;;;;;;12.18;2.60;;;;;;;;;;4989010;28;20149;-59
2022/10/26 02:11:53;;;;;;;14.57;2.90;;;;;;;;;;4996210;28;20042;-59
2022/10/26 02:14:38;;;;;;;10.70;3.10;;;;;;;;;;4989116;28;20513;-58
2022/10/26 02:17:25;;;;;;;8.30;3.08;;;;;;;;;;4995516;28;20541;-57
2022/10/26 02:20:06;;;;;;;8.15;2.92;;;;;;;;;;4986971;28;20050;-58
2022/10/26 02:22:44;;;;;;;6.80;2.55;;;;;;;;;;4989950;28;20042;-59
2022/10/26 02:25:16;;;;;;;9.10;2.92;;;;;;;;;;4989347;28;20034;-59
2022/10/26 02:27:48;;;;;;;9.20;3.03;;;;;;;;;;4987916;28;20038;-59
2022/10/26 02:30:13;;;;;;;6.60;3.00;;;;;;;;;;4985343;28;20050;-57
2022/10/26 02:32:44;;;;;;;7.90;3.15;;;;;;;;;;4991642;28;20084;-60
2022/10/26 02:35:11;;;;;;;12.02;3.20;;;;;;;;;;4991182;28;20038;-57
2022/10/26 02:37:38;;;;;;;6.88;2.80;;;;;;;;;;4989943;28;20046;-58
2022/10/26 02:40:09;;;;;;;7.53;2.65;;;;;;;;;;4988355;28;20519;-60
2022/10/26 02:42:35;;;;;;;5.72;2.67;;;;;;;;;;4986783;28;20401;-61
2022/10/26 02:45:08;;;;;;;8.10;2.92;;;;;;;;;;4990165;28;20105;-60
2022/10/26 02:47:34;;;;;;;12.70;2.65;;;;;;;;;;4994376;28;20392;-61
2022/10/26 02:50:00;;;;;;;12.02;3.45;;;;;;;;;;4994682;28;20054;-61
2022/10/26 02:52:59;;;;;;;6.55;2.88;;;;;;;;;;4988411;28;20038;-58
2022/10/26 02:55:31;;;;;;;9.20;3.05;;;;;;;;;;4991302;28;20034;-59
2022/10/26 02:58:07;;;;;;;9.63;2.63;;;;;;;;;;4989688;28;20034;-58
2022/10/26 03:00:32;;;;;;;5.90;2.60;;;;;;;;;;4994890;28;20133;-58
2022/10/26 03:02:58;;;;;;;8.07;2.65;;;;;;;;;;4987764;28;20566;-58
2022/10/26 03:05:25;;;;;;;8.00;3.10;;;;;;;;;;4991096;28;20050;-58
2022/10/26 03:07:51;;;;;;;7.07;2.95;;;;;;;;;;4989108;28;20057;-58
2022/10/26 03:10:17;;;;;;;7.60;3.08;;;;;;;;;;4992366;28;20400;-59
2022/10/26 03:12:42;;;;;;;8.02;2.95;;;;;;;;;;4987370;28;20121;-57
2022/10/26 03:15:08;;;;;;;9.43;3.10;;;;;;;;;;4993212;28;20050;-57
2022/10/26 03:17:33;;;;;;;9.75;2.50;;;;;;;;;;4988944;28;20062;-58
2022/10/26 03:19:59;;;;;;;9.48;3.05;;;;;;;;;;4985953;28;20050;-57
2022/10/26 03:22:24;;;;;;;8.68;2.78;;;;;;;;;;4983477;28;20039;-59
2022/10/26 03:24:49;;;;;;;14.35;3.35;;;;;;;;;;4988279;28;20030;-57
2022/10/26 03:27:15;;;;;;;8.00;2.78;;;;;;;;;;4986070;28;20053;-57
2022/10/26 03:29:40;;;;;;;10.60;3.05;;;;;;;;;;4992261;28;20050;-57
2022/10/26 03:32:06;;;;;;;7.90;2.88;;;;;;;;;;4986833;28;20042;-59
2022/10/26 03:34:31;;;;;;;4.35;2.40;;;;;;;;;;4986920;28;20076;-58
2022/10/26 03:36:57;;;;;;;6.07;2.95;;;;;;;;;;4989114;28;20037;-58
2022/10/26 03:39:23;;;;;;;8.85;2.80;;;;;;;;;;4984982;28;20704;-59
2022/10/26 03:41:48;;;;;;;9.68;2.95;;;;;;;;;;4983104;28;20411;-58
2022/10/26 03:44:13;;;;;;;7.63;2.88;;;;;;;;;;4992154;28;20047;-58
2022/10/26 03:46:39;;;;;;;12.05;2.70;;;;;;;;;;4989090;28;20054;-58
2022/10/26 03:49:04;;;;;;;9.45;2.88;;;;;;;;;;4987368;28;20042;-58
2022/10/26 03:51:30;;;;;;;6.68;2.70;;;;;;;;;;4989399;28;20046;-58
2022/10/26 03:53:55;;;;;;;9.48;2.78;;;;;;;;;;4987085;28;20256;-58
2022/10/26 03:56:21;;;;;;;8.88;2.78;;;;;;;;;;4987971;28;20072;-58
2022/10/26 03:58:46;;;;;;;5.65;2.50;;;;;;;;;;4991042;28;20046;-58
2022/10/26 04:01:12;;;;;;;6.80;2.83;;;;;;;;;;4984341;28;20031;-58
2022/10/26 04:03:37;;;;;;;9.18;2.85;;;;;;;;;;4986714;28;20026;-58
2022/10/26 04:06:03;;;;;;;8.75;3.00;;;;;;;;;;4983701;28;20502;-58
2022/10/26 04:08:28;;;;;;;10.10;2.80;;;;;;;;;;4984675;28;20145;-59
2022/10/26 04:10:54;;;;;;;7.40;2.55;;;;;;;;;;4986532;28;21172;-58
2022/10/26 04:13:19;;;;;;;5.03;2.80;;;;;;;;;;4981731;28;20030;-58
2022/10/26 04:15:44;;;;;;;4.50;2.72;;;;;;;;;;4985462;28;20067;-60
2022/10/26 04:18:12;;;;;;;13.15;2.88;;;;;;;;;;4985327;28;20589;-58
2022/10/26 04:20:40;;;;;;;6.05;3.10;;;;;;;;;;4985082;28;20046;-59
2022/10/26 04:23:09;;;;;;;11.32;3.13;;;;;;;;;;4977339;28;20086;-59
2022/10/26 04:25:35;;;;;;;7.03;3.03;;;;;;;;;;4986512;28;20112;-60
2022/10/26 04:28:02;;;;;;;9.38;3.53;;;;;;;;;;4986228;28;20054;-58
2022/10/26 04:30:28;;;;;;;10.93;3.40;;;;;;;;;;4984874;28;20141;-61
2022/10/26 04:32:53;;;;;;;7.20;3.15;;;;;;;;;;4983791;28;20130;-59
2022/10/26 04:35:19;;;;;;;15.05;4.97;;;;;;;;;;4989686;28;20043;-59
2022/10/26 04:37:44;;;;;;;5.97;2.95;;;;;;;;;;4983105;28;20137;-58
2022/10/26 04:40:10;;;;;;;8.65;2.63;;;;;;;;;;4982890;28;20065;-61
2022/10/26 04:42:45;;;;;;;16.67;3.30;;;;;;;;;;4980265;28;20135;-59
2022/10/26 04:45:12;;;;;;;5.93;2.88;;;;;;;;;;4984674;28;20090;-59
2022/10/26 04:47:38;;;;;;;5.97;2.97;;;;;;;;;;4987907;28;20047;-58
2022/10/26 04:50:04;;;;;;;6.63;2.83;;;;;;;;;;4987737;28;20105;-58
2022/10/26 04:52:30;;;;;;;8.25;2.95;;;;;;;;;;4983713;28;20050;-58
2022/10/26 04:54:55;;;;;;;7.43;2.80;;;;;;;;;;4982659;28;20045;-58
2022/10/26 04:57:21;;;;;;;7.38;2.80;;;;;;;;;;4981233;28;20038;-63
2022/10/26 04:59:46;;;;;;;8.88;2.90;;;;;;;;;;4983293;28;20078;-59
2022/10/26 05:02:11;;;;;;;6.53;2.70;;;;;;;;;;4977942;28;20043;-59
2022/10/26 05:04:37;;;;;;;5.80;2.75;;;;;;;;;;4988899;28;20078;-58
2022/10/26 05:07:02;;;;;;;6.50;3.20;;;;;;;;;;4983978;28;20042;-59
2022/10/26 05:09:27;;;;;;;8.07;3.05;;;;;;;;;;4982131;28;20053;-57
2022/10/26 05:11:53;;;;;;;7.75;2.90;;;;;;;;;;4983534;28;20057;-57
2022/10/26 05:14:18;;;;;;;6.30;3.15;;;;;;;;;;4981139;28;20058;-58
2022/10/26 05:16:44;;;;;;;7.97;3.25;;;;;;;;;;4981580;28;20064;-59
2022/10/26 05:19:09;;;;;;;6.60;2.92;;;;;;;;;;4980380;28;20483;-59
2022/10/26 05:21:35;;;;;;;9.13;3.47;;;;;;;;;;4978586;28;20074;-57
2022/10/26 05:24:00;;;;;;;6.22;2.72;;;;;;;;;;4986207;28;20584;-59
2022/10/26 05:26:26;;;;;;;7.28;2.85;;;;;;;;;;4982787;28;20058;-59
2022/10/26 05:28:53;;;;;;;9.93;3.67;;;;;;;;;;4982070;28;20046;-58
2022/10/26 05:31:19;;;;;;;9.20;2.83;;;;;;;;;;4982308;28;20041;-59
2022/10/26 05:33:48;;;;;;;7.22;2.92;;;;;;;;;;4979832;28;20444;-59
2022/10/26 05:36:13;;;;;;;7.22;3.33;;;;;;;;;;4982115;28;20472;-59
2022/10/26 05:38:38;;;;;;;6.82;3.25;;;;;;;;;;4978050;28;20054;-58
2022/10/26 05:41:04;;;;;;;5.75;2.85;;;;;;;;;;4981354;28;20042;-59
2022/10/26 05:43:29;;;;;;;4.82;2.80;;;;;;;;;;4983261;28;20100;-58
2022/10/26 05:45:55;;;;;;;10.88;3.33;;;;;;;;;;4984462;28;20466;-59
2022/10/26 05:48:20;;;;;;;6.03;2.97;;;;;;;;;;4981494;28;20507;-57
2022/10/26 05:50:46;;;;;;;6.72;2.95;;;;;;;;;;4984642;28;20125;-59
2022/10/26 05:53:12;;;;;;;6.35;2.97;;;;;;;;;;4981041;28;20050;-57
2022/10/26 05:55:37;;;;;;;5.55;2.67;;;;;;;;;;4980189;28;20129;-57
2022/10/26 05:58:03;;;;;;;6.82;3.20;;;;;;;;;;4978308;28;20511;-59
2022/10/26 06:00:29;;;;;;;6.38;2.80;;;;;;;;;;4977108;28;20046;-60
2022/10/26 06:03:11;;;;;;;6.90;3.30;;;;;;;;;;4980463;28;20070;-57
2022/10/26 06:05:45;;;;;;;8.30;3.35;;;;;;;;;;4985738;28;20046;-58
2022/10/26 06:08:11;;;;;;;9.30;3.40;;;;;;;;;;4973884;28;20052;-55
2022/10/26 06:10:37;;;;;;;7.07;3.25;;;;;;;;;;4981567;28;20053;-57
2022/10/26 06:13:03;;;;;;;13.75;3.58;;;;;;;;;;4984335;28;20489;-59
2022/10/26 06:15:31;;;;;;;13.60;4.20;;;;;;;;;;4985335;28;20094;-56
2022/10/26 06:18:06;;;;;;;6.75;3.33;;;;;;;;;;4984661;28;20455;-58
2022/10/26 06:21:00;;;;;;;7.88;3.20;;;;;;;;;;4976713;28;20057;-58
2022/10/26 06:23:28;;;;;;;14.05;3.15;;;;;;;;;;4982511;28;20612;-58
2022/10/26 06:26:06;;;;;;;8.15;3.17;;;;;;;;;;4986011;28;20046;-57
2022/10/26 06:28:47;;;;;;;8.82;3.00;;;;;;;;;;4976768;28;20054;-56
2022/10/26 06:31:13;;;;;;;8.57;2.80;;;;;;;;;;4980800;28;20038;-56
2022/10/26 06:33:39;;;;;;;10.43;3.22;;;;;;;;;;4982675;28;20043;-57
2022/10/26 06:36:19;;;;;;;9.80;3.10;;;;;;;;;;4981591;28;20047;-57
2022/10/26 06:38:47;;;;;;;8.18;2.75;;;;;;;;;;4979019;28;20596;-55
2022/10/26 06:41:18;;;;;;;10.52;3.08;;;;;;;;;;4977445;28;20050;-56
2022/10/26 06:43:43;;;;;;;5.75;3.22;;;;;;;;;;4980331;28;20137;-59
2022/10/26 06:46:27;;;;;;;6.90;3.40;;;;;;;;;;4981440;28;20112;-58
2022/10/26 06:48:57;;;;;;;13.32;3.55;;;;;;;;;;4964474;28;20248;-58
2022/10/26 06:51:24;;;;;;;7.20;3.55;;;;;;;;;;4972368;28;20501;-57
2022/10/26 06:54:10;;;;;;;9.68;3.88;;;;;;;;;;4970813;28;20062;-57
2022/10/26 06:56:35;;;;;;;9.70;3.83;;;;;;;;;;4982295;28;20046;-64
2022/10/26 06:59:07;;;;;;;10.82;3.50;;;;;;;;;;4978826;28;20050;-58
2022/10/26 07:01:33;;;;;;;6.47;3.28;;;;;;;;;;4979826;28;20412;-58
2022/10/26 07:03:58;;;;;;;7.53;3.28;;;;;;;;;;4977946;28;20038;-58
2022/10/26 07:06:24;;;;;;;8.88;3.53;;;;;;;;;;4975121;28;20054;-55
2022/10/26 07:08:49;;;;;;;9.07;3.60;;;;;;;;;;4976661;28;20054;-58
2022/10/26 07:11:15;;;;;;;10.98;3.50;;;;;;;;;;4979080;28;20055;-58
2022/10/26 07:13:40;;;;;;;11.40;3.33;;;;;;;;;;4978961;28;20054;-58
2022/10/26 07:16:06;;;;;;;7.47;2.80;;;;;;;;;;4974507;28;20046;-59
2022/10/26 07:18:31;;;;;;;8.00;3.08;;;;;;;;;;4970755;28;20046;-56
2022/10/26 07:20:58;;;;;;;8.00;3.35;;;;;;;;;;4971010;28;20042;-57
2022/10/26 07:23:23;;;;;;;13.25;3.17;;;;;;;;;;4974511;28;20054;-57
2022/10/26 07:25:49;;;;;;;11.98;3.50;;;;;;;;;;4975949;28;20045;-57
2022/10/26 07:28:14;;;;;;;8.85;3.40;;;;;;;;;;4976967;28;20042;-57
2022/10/26 07:30:40;;;;;;;7.60;3.20;;;;;;;;;;4977088;28;20034;-57
2022/10/26 07:33:09;;;;;;;7.68;3.28;;;;;;;;;;4972359;28;20090;-56
2022/10/26 07:35:35;;;;;;;6.65;3.28;;;;;;;;;;4977817;28;20054;-59
2022/10/26 07:38:01;;;;;;;21.10;3.65;;;;;;;;;;4981595;28;20043;-58
2022/10/26 07:40:27;;;;;;;10.90;3.15;;;;;;;;;;4981405;28;20038;-56
2022/10/26 07:42:55;;;;;;;7.50;3.22;;;;;;;;;;4985529;28;20705;-59
2022/10/26 07:45:21;;;;;;;11.02;3.72;;;;;;;;;;4987210;28;20096;-59
2022/10/26 07:47:48;;;;;;;9.15;3.47;;;;;;;;;;4984164;28;20073;-59
2022/10/26 07:50:14;;;;;;;9.45;3.20;;;;;;;;;;4984642;28;20052;-59
2022/10/26 07:52:40;;;;;;;9.10;3.13;;;;;;;;;;4983059;28;20054;-59
2022/10/26 07:55:10;;;;;;;5.15;2.95;;;;;;;;;;4988134;28;20039;-59
2022/10/26 07:57:36;;;;;;;12.77;3.13;;;;;;;;;;4981270;28;20073;-59
2022/10/26 08:00:06;;;;;;;7.45;2.97;;;;;;;;;;4981123;28;20047;-57
2022/10/26 08:02:32;;;;;;;5.63;2.88;;;;;;;;;;4985321;28;20094;-57
2022/10/26 08:04:57;;;;;;;15.43;3.50;;;;;;;;;;4987860;28;20489;-56
2022/10/26 08:07:24;;;;;;;14.98;3.80;;;;;;;;;;4984386;28;20125;-55
2022/10/26 08:09:50;;;;;;;15.02;3.47;;;;;;;;;;4986237;28;20046;-55
2022/10/26 08:12:15;;;;;;;13.30;3.17;;;;;;;;;;4990110;28;20116;-55
2022/10/26 08:14:42;;;;;;;13.05;3.28;;;;;;;;;;4983405;28;20509;-56
2022/10/26 08:17:07;;;;;;;9.43;3.10;;;;;;;;;;4985843;28;20054;-58
2022/10/26 08:19:33;;;;;;;8.70;3.55;;;;;;;;;;4980032;28;20101;-56
2022/10/26 08:21:58;;;;;;;7.40;3.20;;;;;;;;;;4981230;28;20046;-58
2022/10/26 08:24:23;;;;;;;9.52;3.67;;;;;;;;;;4986237;28;20474;-57
2022/10/26 08:26:49;;;;;;;14.95;3.10;;;;;;;;;;4985807;28;20105;-56
2022/10/26 08:29:14;;;;;;;10.02;3.40;;;;;;;;;;4989964;28;20141;-60
2022/10/26 08:31:40;;;;;;;11.10;3.47;;;;;;;;;;4985771;28;20124;-58
2022/10/26 08:34:05;;;;;;;11.20;3.00;;;;;;;;;;4986582;28;20046;-56
2022/10/26 08:36:31;;;;;;;15.38;3.05;;;;;;;;;;4985276;28;20042;-56
2022/10/26 08:38:56;;;;;;;9.98;3.25;;;;;;;;;;4986128;28;20462;-59
2022/10/26 08:41:36;;;;;;;6.97;2.90;;;;;;;;;;4985184;28;20042;-58
2022/10/26 08:44:39;;;;;;;7.88;2.85;;;;;;;;;;4985912;28;20046;-62
2022/10/26 08:47:19;;;;;;;11.07;3.20;;;;;;;;;;4986982;28;20054;-60
2022/10/26 08:50:12;;;;;;;9.07;3.33;;;;;;;;;;4986010;28;20282;-60
2022/10/26 08:53:10;;;;;;;11.43;3.33;;;;;;;;;;4986740;28;20141;-58
2022/10/26 08:55:44;;;;;;;8.80;2.92;;;;;;;;;;4962113;28;20409;-55
2022/10/26 08:58:19;;;;;;;13.68;3.88;;;;;;;;;;4980945;28;20039;-57
2022/10/26 09:00:48;;;;;;;14.77;4.03;;;;;;;;;;4983845;28;21019;-58
2022/10/26 09:03:15;;;;;;;14.13;3.97;;;;;;;;;;4988555;28;20053;-57
2022/10/26 09:05:52;;;;;;;12.48;4.10;;;;;;;;;;4988106;28;20050;-56
2022/10/26 09:08:43;;;;;;;10.45;3.65;;;;;;;;;;4986065;28;20899;-57
2022/10/26 09:11:40;;;;;;;12.18;3.60;;;;;;;;;;4985973;28;20055;-58
2022/10/26 09:14:19;;;;;;;10.25;3.30;;;;;;;;;;4982250;28;20104;-56
2022/10/26 09:16:59;;;;;;;6.20;3.08;;;;;;;;;;4983963;28;20451;-58
2022/10/26 09:19:42;;;;;;;8.85;3.13;;;;;;;;;;4979651;28;20409;-57
2022/10/26 09:22:15;;;;;;;;;;;;;;;;;;4972226;28;20057;-55
2022/10/26 09:24:51;;;;;;;7.07;2.95;;;;;;;;;;4971566;28;19969;-56
2022/10/26 09:27:27;;;;;;;11.77;3.22;;;;;;;;;;4969543;28;20054;-55
2022/10/26 09:29:55;;;;;;;8.70;3.40;;;;;;;;;;4979911;28;20054;-54
2022/10/26 09:32:28;;;;;;;6.55;3.45;;;;;;;;;;4971738;28;20142;-54
2022/10/26 09:35:19;;;;;;;10.55;3.53;;;;;;;;;;4972009;28;20054;-57
2022/10/26 09:37:52;;;;;;;14.70;3.90;;;;;;;;;;4969566;28;20051;-55
2022/10/26 09:40:35;;;;;;;7.05;3.60;;;;;;;;;;4969197;28;20398;-57
2022/10/26 09:43:28;;;;;;;11.05;3.85;;;;;;;;;;4977139;28;20039;-55
2022/10/26 09:45:54;;;;;;;7.30;3.28;;;;;;;;;;4974586;28;20093;-65
2022/10/26 09:48:47;;;;;;;8.63;4.07;;;;;;;;;;4979248;28;20065;-64
2022/10/26 09:51:14;;;;;;;;;;;;;;;;;;4982343;28;20452;-65
2022/10/26 09:53:40;;;;;;;7.93;2.97;;;;;;;;;;4980841;28;20418;-64
2022/10/26 09:56:08;;;;;;;6.28;3.22;;;;;;;;;;4975159;28;20051;-65
2022/10/26 09:58:58;;;;;;;9.75;3.53;;;;;;;;;;4973180;28;20081;-64
2022/10/26 10:01:31;;;;;;;7.03;3.13;;;;;;;;;;4975811;28;20587;-64
2022/10/26 10:04:12;;;;;;;5.50;3.13;;;;;;;;;;4976714;28;20375;-64
2022/10/26 10:06:44;;;;;;;9.15;3.20;;;;;;;;;;4974509;28;20132;-64
2022/10/26 10:09:12;;;;;;;6.32;3.13;;;;;;;;;;4973819;28;20050;-64
2022/10/26 10:11:39;;;;;;;8.25;3.15;;;;;;;;;;4974808;28;20057;-64
2022/10/26 10:14:07;;;;;;;7.78;3.20;;;;;;;;;;4972716;28;20052;-65
2022/10/26 10:16:34;;;;;;;9.38;3.25;;;;;;;;;;4976987;28;21725;-64
2022/10/26 10:19:00;;;;;;;10.35;3.05;;;;;;;;;;4974306;28;20050;-65
2022/10/26 10:21:38;;;;;;;6.93;2.85;;;;;;;;;;4976865;28;20081;-64
2022/10/26 10:24:28;;;;;;;9.80;3.53;;;;;;;;;;4974146;28;20061;-65
2022/10/26 10:27:03;;;;;;;9.30;3.17;;;;;;;;;;4977131;28;20046;-64
2022/10/26 10:29:41;;;;;;;7.20;3.00;;;;;;;;;;4978975;28;20107;-65
2022/10/26 10:32:15;;;;;;;5.13;3.05;;;;;;;;;;4977370;28;20046;-65
2022/10/26 10:34:40;;;;;;;8.15;3.10;;;;;;;;;;4979770;28;20065;-65
2022/10/26 10:37:05;;;;;;;6.88;3.13;;;;;;;;;;4977678;28;20031;-65
2022/10/26 10:39:38;;;;;;;6.60;3.22;;;;;;;;;;4977514;28;20050;-64
2022/10/26 10:42:12;;;;;;;12.52;3.95;;;;;;;;;;4979784;28;20155;-65
2022/10/26 10:44:38;;;;;;;11.02;3.40;;;;;;;;;;4988476;28;20644;-65
2022/10/26 10:47:06;;;;;;;8.13;3.03;;;;;;;;;;4978458;28;20058;-65
2022/10/26 10:49:32;;;;;;;11.38;2.97;;;;;;;;;;4988791;28;20038;-65
2022/10/26 10:51:59;;;;;;;7.40;3.25;;;;;;;;;;4978026;28;20117;-65
2022/10/26 10:54:31;;;;;;;9.55;3.30;;;;;;;;;;4982688;28;20054;-65
2022/10/26 10:57:20;;;;;;;7.13;3.00;;;;;;;;;;4978048;28;20046;-65
2022/10/26 11:00:12;;;;;;;6.18;3.13;;;;;;;;;;4979563;28;20046;-65
2022/10/26 11:03:05;;;;;;;6.70;2.25;;;;;;;;;;4979082;28;20137;-65
2022/10/26 11:05:49;;;;;;;12.90;3.67;;;;;;;;;;4976558;28;20051;-65
2022/10/26 11:08:41;;;;;;;7.85;2.42;;;;;;;;;;4974875;28;20560;-63
2022/10/26 11:11:19;;;;;;;7.28;2.50;;;;;;;;;;4978457;28;20038;-63
2022/10/26 11:13:51;;;;;;;5.47;2.40;;;;;;;;;;4978774;28;20081;-65
2022/10/26 11:16:23;;;;;;;8.40;2.58;;;;;;;;;;4977576;28;20185;-62
2022/10/26 11:19:21;;;;;;;10.15;2.97;;;;;;;;;;4977159;28;20041;-62
2022/10/26 11:21:52;;;;;;;8.00;2.17;;;;;;;;;;4975594;28;20120;-62
2022/10/26 11:24:18;;;;;;;6.53;2.40;;;;;;;;;;4979682;28;20054;-63
2022/10/26 11:26:59;;;;;;;7.65;1.83;;;;;;;;;;4980193;28;20431;-63
2022/10/26 11:29:30;;;;;;;5.13;1.80;;;;;;;;;;4976818;28;20093;-63
2022/10/26 11:32:10;;;;;;;6.75;2.22;;;;;;;;;;4975957;28;20686;-65
2022/10/26 11:34:47;;;;;;;4.65;2.08;;;;;;;;;;4978841;28;20058;-64
2022/10/26 11:37:36;;;;;;;10.27;1.92;;;;;;;;;;4979276;28;20026;-62
2022/10/26 11:40:21;;;;;;;4.70;1.92;;;;;;;;;;4942674;28;20073;-63
2022/10/26 11:43:23;;;;;;;6.93;1.95;;;;;;;;;;4980000;28;20073;-65
2022/10/26 11:46:04;;;;;;;5.15;1.45;;;;;;;;;;4980154;28;20062;-62
2022/10/26 11:48:42;;;;;;;10.50;2.20;;;;;;;;;;4981857;28;20054;-62
2022/10/26 11:51:16;;;;;;;4.38;1.75;;;;;;;;;;4978665;28;20082;-64
2022/10/26 11:53:44;;;;;;;8.43;2.15;;;;;;;;;;4978521;28;20046;-64
2022/10/26 11:56:37;;;;;;;5.88;1.77;;;;;;;;;;4979097;28;20046;-64
2022/10/26 11:59:03;;;;;;;12.23;2.40;;;;;;;;;;4976017;28;20116;-64
2022/10/26 12:01:29;;;;;;;6.78;2.10;;;;;;;;;;4977454;28;20458;-64
2022/10/26 12:03:58;;;;;;;7.95;1.65;;;;;;;;;;4976777;28;20769;-65
2022/10/26 12:06:31;;;;;;;4.82;1.98;;;;;;;;;;4979912;28;20066;-65
2022/10/26 12:09:10;;;;;;;6.63;2.00;;;;;;;;;;4973925;28;20054;-64
2022/10/26 12:11:45;;;;;;;4.07;1.60;;;;;;;;;;4977002;28;20057;-62
2022/10/26 12:14:25;;;;;;;6.00;1.65;;;;;;;;;;4977587;28;20061;-64
2022/10/26 12:16:53;;;;;;;5.80;2.22;;;;;;;;;;4970684;28;20094;-64
2022/10/26 12:19:35;;;;;;;5.93;2.20;;;;;;;;;;4980371;28;20496;-64
2022/10/26 12:22:01;;;;;;;9.07;1.90;;;;;;;;;;4973401;28;20105;-66
2022/10/26 12:24:34;;;;;;;6.82;1.90;;;;;;;;;;4977119;28;20478;-64
2022/10/26 12:27:05;;;;;;;15.80;2.13;;;;;;;;;;4974784;28;20050;-67
2022/10/26 12:29:45;;;;;;;3.88;1.73;;;;;;;;;;4975936;28;20795;-64
2022/10/26 12:32:29;;;;;;;7.10;1.90;;;;;;;;;;4978172;28;20056;-62
2022/10/26 12:34:54;;;;;;;4.00;1.83;;;;;;;;;;4977147;28;20540;-63
2022/10/26 12:37:35;;;;;;;6.20;1.90;;;;;;;;;;4982551;28;20042;-63
2022/10/26 12:40:32;;;;;;;6.75;1.95;;;;;;;;;;4979773;28;20065;-63
2022/10/26 12:43:12;;;;;;;5.47;2.17;;;;;;;;;;4980877;28;20129;-63
2022/10/26 12:45:38;;;;;;;8.43;2.03;;;;;;;;;;4977935;28;20054;-63
2022/10/26 12:48:19;;;;;;;8.48;2.08;;;;;;;;;;4976582;28;20046;-63
2022/10/26 12:50:45;;;;;;;6.22;1.83;;;;;;;;;;4978616;28;20505;-63
2022/10/26 12:53:12;;;;;;;5.60;2.17;;;;;;;;;;4977180;28;20042;-64
2022/10/26 12:56:04;;;;;;;6.95;2.17;;;;;;;;;;4977397;28;20057;-69
2022/10/26 12:58:45;;;;;;;7.15;1.77;;;;;;;;;;4971144;28;20084;-65
2022/10/26 13:01:38;;;;;;;7.68;2.30;;;;;;;;;;4970438;28;20044;-64
2022/10/26 13:04:28;;;;;;;4.78;2.03;;;;;;;;;;4979737;28;20069;-64
2022/10/26 13:07:15;;;;;;;5.80;1.60;;;;;;;;;;4981837;28;20546;-63
2022/10/26 13:09:45;;;;;;;8.90;2.00;;;;;;;;;;4980196;28;20058;-63
2022/10/26 13:12:10;;;;;;;5.15;1.95;;;;;;;;;;4978166;28;20465;-63
2022/10/26 13:14:48;;;;;;;6.28;1.85;;;;;;;;;;4976348;28;20054;-64
2022/10/26 13:17:28;;;;;;;7.75;2.05;;;;;;;;;;4974653;28;20050;-63
2022/10/26 13:19:56;;;;;;;6.88;1.75;;;;;;;;;;4975910;28;20082;-63
2022/10/26 13:22:23;;;;;;;5.55;2.10;;;;;;;;;;4975834;28;20041;-63
2022/10/26 13:25:00;;;;;;;7.82;2.00;;;;;;;;;;4973971;28;20039;-63
2022/10/26 13:27:32;;;;;;;6.63;1.98;;;;;;;;;;4971446;28;20105;-63
2022/10/26 13:30:03;;;;;;;6.38;1.90;;;;;;;;;;4973419;28;20453;-62
2022/10/26 13:32:35;;;;;;;5.80;1.50;;;;;;;;;;4972561;28;20520;-64
2022/10/26 13:35:02;;;;;;;8.67;2.33;;;;;;;;;;4973476;28;20062;-64
2022/10/26 13:37:30;;;;;;;9.27;2.10;;;;;;;;;;4974192;28;20030;-63
2022/10/26 13:39:58;;;;;;;6.25;2.05;;;;;;;;;;4974991;28;20042;-64
2022/10/26 13:42:26;;;;;;;8.05;2.00;;;;;;;;;;4973809;28;20401;-63
2022/10/26 13:45:21;;;;;;;5.30;1.70;;;;;;;;;;4974413;28;20054;-64
2022/10/26 13:47:58;;;;;;;7.40;2.10;;;;;;;;;;4976354;28;20089;-65
2022/10/26 13:50:32;;;;;;;8.82;1.70;;;;;;;;;;4972995;28;20096;-64
2022/10/26 13:53:05;;;;;;;6.78;1.60;;;;;;;;;;4973389;28;20061;-64
2022/10/26 13:55:36;;;;;;;3.88;1.77;;;;;;;;;;4975298;28;20169;-64
2022/10/26 13:58:43;;;;;;;6.43;2.00;;;;;;;;;;4973098;28;20193;-64
2022/10/26 14:01:10;;;;;;;6.22;1.50;;;;;;;;;;4958955;28;20053;-64
2022/10/26 14:03:36;;;;;;;5.28;1.77;;;;;;;;;;4972862;28;20038;-63
2022/10/26 14:06:23;;;;;;;6.97;2.00;;;;;;;;;;4971607;28;20067;-63
2022/10/26 14:08:51;;;;;;;4.78;2.03;;;;;;;;;;4973804;28;20452;-63
2022/10/26 14:11:20;;;;;;;5.00;2.08;;;;;;;;;;4979985;28;20076;-64
2022/10/26 14:13:50;;;;;;;5.40;2.10;;;;;;;;;;4971076;28;20048;-63
2022/10/26 14:16:20;;;;;;;7.38;2.10;;;;;;;;;;4979611;28;20026;-63
2022/10/26 14:18:48;;;;;;;8.20;2.55;;;;;;;;;;4977328;28;20490;-63
2022/10/26 14:21:17;;;;;;;8.05;2.65;;;;;;;;;;4974657;28;20054;-62
2022/10/26 14:23:50;;;;;;;6.88;2.75;;;;;;;;;;4978536;28;20069;-65
2022/10/26 14:26:27;;;;;;;14.23;3.25;;;;;;;;;;4975790;28;20195;-63
2022/10/26 14:28:57;;;;;;;6.03;2.47;;;;;;;;;;4977821;28;20050;-62
2022/10/26 14:31:31;;;;;;;6.35;1.88;;;;;;;;;;4974224;28;20441;-63
2022/10/26 14:33:58;;;;;;;6.85;2.60;;;;;;;;;;4980484;28;20371;-63
2022/10/26 14:36:29;;;;;;;9.38;2.17;;;;;;;;;;4978172;28;20046;-63
2022/10/26 14:38:59;;;;;;;2.63;1.85;;;;;;;;;;4978077;28;20481;-63
2022/10/26 14:41:25;;;;;;;9.30;2.60;;;;;;;;;;4971032;28;20083;-63
2022/10/26 14:43:51;;;;;;;7.93;2.15;;;;;;;;;;4980229;28;20055;-63
2022/10/26 14:46:19;;;;;;;7.28;2.38;;;;;;;;;;4974354;28;20034;-62
2022/10/26 14:48:58;;;;;;;5.15;2.00;;;;;;;;;;4985320;28;20084;-62
2022/10/26 14:51:35;;;;;;;3.53;1.67;;;;;;;;;;4971771;28;20055;-63
2022/10/26 14:54:02;;;;;;;6.05;1.50;;;;;;;;;;4971498;28;20078;-63
2022/10/26 14:56:39;;;;;;;6.30;1.95;;;;;;;;;;4978787;28;20049;-68
2022/10/26 14:59:24;;;;;;;4.60;1.83;;;;;;;;;;4971551;28;20054;-64
2022/10/26 15:01:55;;;;;;;9.20;1.83;;;;;;;;;;4972866;28;20050;-65
2022/10/26 15:04:41;;;;;;;5.07;1.95;;;;;;;;;;4969866;28;20129;-65
2022/10/26 15:07:10;;;;;;;3.40;2.13;;;;;;;;;;4980559;28;20027;-63